Time;durP1;ratioP1;P1;durP2;ratioP2;P2;SDS_P1;SDS_P2;PMS_P1;PMS_P2;Temp;Humidity;BMP_temperature;BMP_pressure;BME280_temperature;BME280_humidity;BME280_pressure;Samples;Min_cycle;Max_cycle;Signal;HPM_P1;HPM_P2
2020/12/21 00:02:22;;;;;;;26.03;16.97;;;5.30;99.90;;;;;;5109868;28;20287;-63
2020/12/21 00:04:47;;;;;;;26.20;17.07;;;5.30;99.90;;;;;;5107514;28;20284;-63
2020/12/21 00:07:13;;;;;;;35.40;20.00;;;5.30;99.90;;;;;;5108783;28;20206;-63
2020/12/21 00:09:38;;;;;;;26.17;17.03;;;5.30;99.90;;;;;;5110434;28;20187;-60
2020/12/21 00:12:04;;;;;;;23.17;15.40;;;5.30;99.90;;;;;;5109304;28;20279;-62
2020/12/21 00:14:29;;;;;;;24.13;16.13;;;5.20;99.90;;;;;;5109079;28;20180;-61
2020/12/21 00:16:55;;;;;;;27.73;18.20;;;5.20;99.90;;;;;;5110559;28;20191;-61
2020/12/21 00:19:22;;;;;;;26.57;17.80;;;5.20;99.90;;;;;;5109450;28;20651;-62
2020/12/21 00:21:51;;;;;;;25.50;18.03;;;5.20;99.90;;;;;;5111248;28;20204;-62
2020/12/21 00:24:17;;;;;;;22.27;16.03;;;5.20;99.90;;;;;;5112292;28;20172;-61
2020/12/21 00:26:47;;;;;;;25.47;15.87;;;5.30;99.90;;;;;;5110805;28;20237;-62
2020/12/21 00:29:14;;;;;;;24.60;17.67;;;5.30;99.90;;;;;;5107648;28;20191;-60
2020/12/21 00:31:39;;;;;;;24.67;16.93;;;5.30;99.90;;;;;;5109194;28;20183;-62
2020/12/21 00:34:06;;;;;;;26.50;17.23;;;5.30;99.90;;;;;;5109983;28;20176;-61
2020/12/21 00:36:36;;;;;;;25.87;17.07;;;5.30;99.90;;;;;;5110130;28;20172;-61
2020/12/21 00:39:03;;;;;;;24.10;16.63;;;5.30;99.90;;;;;;5108874;28;20225;-62
2020/12/21 00:41:29;;;;;;;23.17;15.03;;;5.30;99.90;;;;;;5106406;28;20194;-62
2020/12/21 00:43:54;;;;;;;23.73;16.40;;;5.30;99.90;;;;;;5104716;28;20656;-61
2020/12/21 00:46:25;;;;;;;24.67;16.93;;;5.30;99.90;;;;;;5109405;28;20202;-61
2020/12/21 00:48:52;;;;;;;26.30;16.97;;;5.30;99.90;;;;;;5109865;28;20670;-61
2020/12/21 00:51:18;;;;;;;24.77;16.00;;;5.30;99.90;;;;;;5108850;28;20247;-61
2020/12/21 00:53:43;;;;;;;30.47;18.23;;;5.30;99.90;;;;;;5107523;28;20330;-61
2020/12/21 00:56:09;;;;;;;19.10;12.67;;;5.30;99.90;;;;;;5109581;28;20176;-60
2020/12/21 00:58:38;;;;;;;28.17;18.60;;;5.20;99.90;;;;;;5109456;28;20183;-61
2020/12/21 01:01:07;;;;;;;29.90;17.57;;;5.20;99.90;;;;;;5109062;28;20357;-62
2020/12/21 01:03:33;;;;;;;27.23;17.10;;;5.20;99.90;;;;;;5108386;28;20252;-62
2020/12/21 01:05:58;;;;;;;26.70;17.73;;;5.20;99.90;;;;;;5110224;28;20176;-62
2020/12/21 01:08:24;;;;;;;28.53;17.83;;;5.20;99.90;;;;;;5109657;28;20210;-61
2020/12/21 01:10:49;;;;;;;25.90;15.80;;;5.20;99.90;;;;;;5106913;28;20218;-63
2020/12/21 01:13:15;;;;;;;27.57;16.27;;;5.30;99.90;;;;;;5112444;28;20257;-63
2020/12/21 01:15:41;;;;;;;25.97;17.20;;;5.20;99.90;;;;;;5113377;28;20274;-63
2020/12/21 01:18:06;;;;;;;36.03;19.07;;;5.20;99.90;;;;;;5112793;28;20640;-63
2020/12/21 01:20:32;;;;;;;25.30;17.43;;;5.30;99.90;;;;;;5112321;28;20270;-64
2020/12/21 01:22:57;;;;;;;25.17;16.80;;;5.30;99.90;;;;;;5112706;28;20610;-63
2020/12/21 01:25:23;;;;;;;25.57;16.57;;;5.30;99.90;;;;;;5112793;28;20258;-63
2020/12/21 01:27:48;;;;;;;27.83;18.77;;;5.30;99.90;;;;;;5112762;28;20210;-63
2020/12/21 01:30:14;;;;;;;25.97;17.13;;;5.30;99.90;;;;;;5106833;28;20643;-63
2020/12/21 01:32:39;;;;;;;22.47;16.00;;;5.30;99.90;;;;;;5112126;28;20482;-62
2020/12/21 01:35:05;;;;;;;24.60;15.80;;;5.40;99.90;;;;;;5112568;28;20191;-61
2020/12/21 01:37:31;;;;;;;27.23;18.83;;;5.40;99.90;;;;;;5112678;28;20262;-62
2020/12/21 01:39:56;;;;;;;22.57;15.17;;;5.30;99.90;;;;;;5112250;28;20222;-62
2020/12/21 01:42:22;;;;;;;26.13;16.53;;;5.30;99.90;;;;;;5112330;28;20223;-62
2020/12/21 01:44:48;;;;;;;26.60;17.00;;;5.30;99.90;;;;;;5094698;28;20731;-63
2020/12/21 01:47:15;;;;;;;29.20;17.47;;;5.30;99.90;;;;;;5111383;28;20525;-64
2020/12/21 01:49:41;;;;;;;28.77;18.20;;;5.30;99.90;;;;;;5098680;28;20183;-63
2020/12/21 01:52:07;;;;;;;24.73;17.27;;;5.30;99.90;;;;;;5111618;28;20340;-64
2020/12/21 01:54:33;;;;;;;27.97;17.60;;;5.20;99.90;;;;;;5112383;28;20708;-63
2020/12/21 01:56:59;;;;;;;29.70;18.60;;;5.20;99.90;;;;;;5111764;28;20179;-63
2020/12/21 01:59:25;;;;;;;29.37;18.63;;;5.20;99.90;;;;;;5112195;28;20565;-64
2020/12/21 02:01:51;;;;;;;30.07;18.70;;;5.20;99.90;;;;;;5106757;28;20204;-64
2020/12/21 02:04:17;;;;;;;32.50;19.50;;;5.10;99.90;;;;;;5111998;28;20199;-64
2020/12/21 02:06:43;;;;;;;36.57;21.50;;;5.20;99.90;;;;;;5112164;28;20269;-64
2020/12/21 02:09:09;;;;;;;22.93;14.93;;;5.10;99.90;;;;;;5112230;28;20679;-65
2020/12/21 02:11:39;;;;;;;24.40;16.37;;;5.20;99.90;;;;;;5110880;28;20183;-64
2020/12/21 02:14:05;;;;;;;27.17;17.73;;;5.20;99.90;;;;;;5112403;28;20647;-64
2020/12/21 02:16:30;;;;;;;30.13;15.70;;;5.20;99.90;;;;;;5111430;28;20203;-64
2020/12/21 02:18:55;;;;;;;25.27;16.40;;;5.20;99.90;;;;;;5112586;28;20195;-64
2020/12/21 02:21:21;;;;;;;24.97;16.83;;;5.20;99.90;;;;;;5103777;28;20180;-64
2020/12/21 02:23:46;;;;;;;30.17;18.00;;;5.20;99.90;;;;;;5110678;28;20543;-63
2020/12/21 02:29:56;;;;;;;26.00;16.80;;;5.20;99.90;;;;;;5106896;28;20216;-64
2020/12/21 02:32:21;;;;;;;24.60;16.40;;;5.20;99.90;;;;;;5106211;28;20743;-65
2020/12/21 02:34:47;;;;;;;27.07;18.10;;;5.20;99.90;;;;;;5111950;28;20175;-63
2020/12/21 02:37:12;;;;;;;27.03;17.53;;;5.20;99.90;;;;;;5111827;28;20655;-64
2020/12/21 02:39:38;;;;;;;28.57;17.53;;;5.20;99.90;;;;;;5111250;28;20244;-63
2020/12/21 02:42:03;;;;;;;27.97;17.93;;;5.10;99.90;;;;;;5110729;28;20200;-63
2020/12/21 02:44:29;;;;;;;24.87;17.23;;;5.10;99.90;;;;;;5111364;28;20222;-64
2020/12/21 02:46:54;;;;;;;33.47;19.70;;;5.10;99.90;;;;;;5111088;28;20183;-64
2020/12/21 02:49:19;;;;;;;26.17;16.97;;;5.00;99.90;;;;;;5111475;28;20176;-63
2020/12/21 02:51:50;;;;;;;27.67;18.60;;;5.00;99.90;;;;;;5110428;28;20763;-63
2020/12/21 02:54:16;;;;;;;26.33;17.33;;;5.00;99.90;;;;;;5111185;28;20224;-63
2020/12/21 02:56:41;;;;;;;27.07;17.67;;;5.00;99.90;;;;;;5111123;28;20254;-64
2020/12/21 02:59:07;;;;;;;25.43;16.10;;;4.90;99.90;;;;;;5110975;28;20202;-64
2020/12/21 03:01:32;;;;;;;29.43;17.67;;;5.00;99.90;;;;;;5110078;28;20184;-64
2020/12/21 03:03:57;;;;;;;27.17;17.50;;;5.00;99.90;;;;;;5110838;28;20188;-63
2020/12/21 03:06:23;;;;;;;27.80;16.77;;;5.00;99.90;;;;;;5111101;28;20182;-65
2020/12/21 03:08:48;;;;;;;26.97;17.97;;;5.00;99.90;;;;;;5111026;28;20674;-64
2020/12/21 03:11:14;;;;;;;28.20;18.07;;;5.10;99.90;;;;;;5109814;28;20184;-65
2020/12/21 03:13:39;;;;;;;27.87;16.70;;;5.10;99.90;;;;;;5110963;28;20470;-64
2020/12/21 03:16:05;;;;;;;28.97;17.77;;;5.10;99.90;;;;;;5110855;28;20176;-64
2020/12/21 03:18:30;;;;;;;27.30;17.33;;;5.20;99.90;;;;;;5110775;28;20634;-64
2020/12/21 03:20:56;;;;;;;28.10;17.17;;;5.20;99.90;;;;;;5110070;28;20548;-64
2020/12/21 03:23:21;;;;;;;28.80;16.77;;;5.20;99.90;;;;;;5110557;28;20212;-64
2020/12/21 03:25:47;;;;;;;25.73;16.63;;;5.10;99.90;;;;;;5106431;28;20183;-64
2020/12/21 03:28:12;;;;;;;27.93;18.03;;;5.10;99.90;;;;;;5094596;28;20247;-65
2020/12/21 03:30:37;;;;;;;29.20;18.93;;;5.20;99.90;;;;;;5091015;28;20164;-66
2020/12/21 03:33:03;;;;;;;28.00;17.97;;;5.30;99.90;;;;;;5092160;28;20197;-65
2020/12/21 03:35:28;;;;;;;28.20;19.00;;;5.30;99.90;;;;;;5093178;28;20176;-65
2020/12/21 03:37:54;;;;;;;26.67;18.00;;;5.30;99.90;;;;;;5092227;28;20184;-65
2020/12/21 03:40:20;;;;;;;23.53;16.50;;;5.30;99.90;;;;;;5090456;28;20177;-64
2020/12/21 03:42:45;;;;;;;26.13;16.10;;;5.30;99.90;;;;;;5090990;28;20345;-65
2020/12/21 03:45:11;;;;;;;25.07;17.23;;;5.30;99.90;;;;;;5090627;28;20180;-65
2020/12/21 03:47:36;;;;;;;24.93;17.60;;;5.40;99.90;;;;;;5089506;28;20761;-64
2020/12/21 03:50:02;;;;;;;24.00;16.27;;;5.40;99.90;;;;;;5089609;28;20168;-65
2020/12/21 03:52:28;;;;;;;22.63;15.77;;;5.40;99.90;;;;;;5089190;28;20223;-64
2020/12/21 03:54:53;;;;;;;25.33;17.23;;;5.40;99.90;;;;;;5108891;28;20282;-65
2020/12/21 03:57:18;;;;;;;27.70;18.13;;;5.40;99.90;;;;;;5110725;28;20258;-65
2020/12/21 03:59:44;;;;;;;30.37;18.73;;;5.40;99.90;;;;;;5110415;28;20171;-64
2020/12/21 04:02:09;;;;;;;29.63;18.90;;;5.40;99.90;;;;;;5129103;22;20226;-60
2020/12/21 04:04:35;;;;;;;31.03;20.53;;;5.40;99.90;;;;;;5128789;28;20287;-60
2020/12/21 04:07:00;;;;;;;28.17;18.03;;;5.40;99.90;;;;;;5130783;28;20214;-60
2020/12/21 04:09:26;;;;;;;28.53;20.00;;;5.30;99.90;;;;;;5124796;28;20175;-61
2020/12/21 04:11:51;;;;;;;30.00;18.97;;;5.30;99.90;;;;;;5129938;28;20262;-60
2020/12/21 04:14:17;;;;;;;31.67;19.63;;;5.30;99.90;;;;;;5130520;28;20171;-59
2020/12/21 04:16:42;;;;;;;31.33;20.90;;;5.30;99.90;;;;;;5130960;28;20225;-60
2020/12/21 04:19:08;;;;;;;30.80;20.03;;;5.30;99.90;;;;;;5130579;28;20674;-61
2020/12/21 04:21:33;;;;;;;31.93;21.00;;;5.20;99.90;;;;;;5129913;28;20187;-61
2020/12/21 04:23:58;;;;;;;29.30;19.17;;;5.20;99.90;;;;;;5130479;28;20195;-61
2020/12/21 04:26:24;;;;;;;31.27;19.40;;;5.10;99.90;;;;;;5130349;28;20651;-61
2020/12/21 04:28:49;;;;;;;32.53;18.83;;;5.10;99.90;;;;;;5130164;28;20206;-59
2020/12/21 04:31:15;;;;;;;32.43;20.00;;;5.10;99.90;;;;;;5129646;28;20186;-61
2020/12/21 04:33:41;;;;;;;34.33;19.50;;;5.00;99.90;;;;;;5130229;28;20256;-61
2020/12/21 04:36:10;;;;;;;34.07;20.87;;;5.00;99.90;;;;;;5130564;28;20212;-60
2020/12/21 04:38:40;;;;;;;33.43;21.47;;;5.00;99.90;;;;;;5130457;28;20507;-61
2020/12/21 04:41:06;;;;;;;36.33;22.73;;;5.00;99.90;;;;;;5130426;28;20543;-62
2020/12/21 04:43:32;;;;;;;33.80;20.63;;;5.00;99.90;;;;;;5130375;28;20343;-61
2020/12/21 04:46:01;;;;;;;36.77;20.83;;;5.00;99.90;;;;;;5131663;27;20707;-61
2020/12/21 04:48:29;;;;;;;33.67;21.93;;;5.00;99.90;;;;;;5126123;27;20578;-61
2020/12/21 04:50:55;;;;;;;34.83;19.13;;;5.00;99.90;;;;;;5132830;27;20183;-60
2020/12/21 04:53:23;;;;;;;33.17;20.80;;;5.00;99.90;;;;;;5134107;27;20203;-61
2020/12/21 04:55:48;;;;;;;33.20;20.67;;;5.00;99.90;;;;;;5134667;27;20179;-60
2020/12/21 04:58:14;;;;;;;29.60;19.93;;;5.10;99.90;;;;;;5134597;27;20313;-61
2020/12/21 05:00:39;;;;;;;32.63;21.13;;;5.10;99.90;;;;;;5133830;27;20166;-62
2020/12/21 05:03:07;;;;;;;32.03;20.73;;;5.10;99.90;;;;;;5134107;27;20218;-61
2020/12/21 05:05:51;;;;;;;34.10;19.97;;;5.10;99.90;;;;;;5134135;27;20648;-61
2020/12/21 05:08:23;;;;;;;36.23;19.87;;;5.10;99.90;;;;;;5132638;27;20582;-62
2020/12/21 05:11:03;;;;;;;29.23;19.23;;;5.10;99.90;;;;;;5133176;27;20296;-61
2020/12/21 05:13:31;;;;;;;32.23;18.90;;;5.00;99.90;;;;;;5134087;27;20206;-62
2020/12/21 05:15:58;;;;;;;37.60;20.43;;;5.00;99.90;;;;;;5134097;27;20171;-61
2020/12/21 05:18:26;;;;;;;31.57;19.87;;;5.00;99.90;;;;;;5134033;27;20175;-61
2020/12/21 05:21:03;;;;;;;33.80;19.60;;;4.90;99.90;;;;;;5133254;27;20578;-61
2020/12/21 05:23:29;;;;;;;37.73;20.37;;;4.90;99.90;;;;;;5133977;27;20687;-62
2020/12/21 05:26:06;;;;;;;34.93;20.73;;;4.90;99.90;;;;;;5132336;27;20210;-61
2020/12/21 05:28:39;;;;;;;36.33;20.33;;;4.80;99.90;;;;;;5124611;27;20359;-61
2020/12/21 05:31:07;;;;;;;30.37;19.23;;;4.90;99.90;;;;;;5132537;27;20175;-61
2020/12/21 05:33:33;;;;;;;37.53;19.17;;;4.80;99.90;;;;;;5122152;27;20211;-60
2020/12/21 05:36:09;;;;;;;35.67;21.50;;;4.80;99.90;;;;;;5133142;27;20650;-61
2020/12/21 05:38:35;;;;;;;37.57;23.60;;;4.80;99.90;;;;;;5133117;27;20190;-62
2020/12/21 05:41:16;;;;;;;37.33;22.13;;;4.70;99.90;;;;;;5132717;27;20203;-62
2020/12/21 05:43:42;;;;;;;31.97;20.07;;;4.70;99.90;;;;;;5115257;27;20202;-62
2020/12/21 05:46:16;;;;;;;38.17;22.43;;;4.70;99.90;;;;;;5133397;27;20190;-62
2020/12/21 05:48:47;;;;;;;34.20;20.57;;;4.60;99.90;;;;;;5132942;27;20685;-62
2020/12/21 05:51:24;;;;;;;34.90;21.17;;;4.60;99.90;;;;;;5131973;27;20187;-60
2020/12/21 05:53:54;;;;;;;34.00;20.53;;;4.60;99.90;;;;;;5123260;27;20213;-61
2020/12/21 05:56:22;;;;;;;34.00;20.40;;;4.60;99.90;;;;;;5132549;27;20261;-61
2020/12/21 05:58:48;;;;;;;35.17;20.77;;;4.50;99.90;;;;;;5133041;27;20194;-61
2020/12/21 06:01:14;;;;;;;32.67;19.97;;;4.50;99.90;;;;;;5132198;27;20175;-61
2020/12/21 06:03:50;;;;;;;38.27;21.10;;;4.50;99.90;;;;;;5132447;27;20690;-61
2020/12/21 06:06:22;;;;;;;31.23;19.57;;;4.50;99.90;;;;;;5133131;27;20178;-60
2020/12/21 06:08:51;;;;;;;25.37;16.40;;;4.50;99.90;;;;;;5132871;27;20665;-61
2020/12/21 06:11:20;;;;;;;33.67;19.37;;;4.50;99.90;;;;;;5132213;27;20206;-60
2020/12/21 06:13:57;;;;;;;34.63;20.83;;;4.40;99.90;;;;;;5123530;27;20225;-62
2020/12/21 06:16:24;;;;;;;36.40;21.30;;;4.40;99.90;;;;;;5132924;27;20183;-61
2020/12/21 06:19:05;;;;;;;33.63;20.07;;;4.30;99.90;;;;;;5132988;27;20550;-60
2020/12/21 06:21:34;;;;;;;34.43;20.80;;;4.30;99.90;;;;;;5132062;27;20654;-61
2020/12/21 06:24:00;;;;;;;35.07;22.20;;;4.30;99.90;;;;;;5129531;27;20219;-61
2020/12/21 06:26:38;;;;;;;45.43;23.10;;;4.30;99.90;;;;;;5133248;27;20183;-61
2020/12/21 06:29:08;;;;;;;33.07;20.07;;;4.30;99.90;;;;;;5132205;27;20245;-61
2020/12/21 06:31:44;;;;;;;31.20;19.17;;;4.30;99.90;;;;;;5104722;27;20209;-61
2020/12/21 06:34:14;;;;;;;34.83;20.63;;;4.30;99.90;;;;;;5131828;27;20207;-61
2020/12/21 06:36:39;;;;;;;40.43;22.87;;;4.40;99.90;;;;;;5132006;27;20179;-62
2020/12/21 06:39:06;;;;;;;41.47;24.47;;;4.40;99.90;;;;;;5132195;27;20548;-61
2020/12/21 06:41:32;;;;;;;27.47;15.77;;;4.40;99.90;;;;;;5131482;27;20266;-61
2020/12/21 06:44:06;;;;;;;34.07;21.73;;;4.50;99.90;;;;;;5131506;27;20289;-61
2020/12/21 06:46:34;;;;;;;39.77;21.90;;;4.40;99.90;;;;;;5131774;27;20212;-61
2020/12/21 06:49:06;;;;;;;38.67;21.60;;;4.40;99.90;;;;;;5131645;27;20689;-61
2020/12/21 06:51:33;;;;;;;39.33;22.83;;;4.50;99.90;;;;;;5131218;27;20210;-62
2020/12/21 06:54:01;;;;;;;33.90;19.73;;;4.50;99.90;;;;;;5131420;27;20209;-61
2020/12/21 06:56:26;;;;;;;44.07;25.40;;;4.50;99.90;;;;;;5128959;27;20179;-61
2020/12/21 06:58:53;;;;;;;41.23;23.20;;;4.60;99.90;;;;;;5129939;27;20179;-72
2020/12/21 07:01:21;;;;;;;46.20;25.70;;;4.60;99.90;;;;;;5126595;27;20197;-75
2020/12/21 07:03:47;;;;;;;41.53;22.47;;;4.60;99.90;;;;;;5132320;27;20286;-72
2020/12/21 07:06:13;;;;;;;42.57;25.43;;;4.60;99.90;;;;;;5128207;27;20202;-71
2020/12/21 07:08:38;;;;;;;42.67;23.43;;;4.60;99.90;;;;;;5127225;27;20294;-71
2020/12/21 07:11:04;;;;;;;44.60;22.97;;;4.50;99.90;;;;;;5125356;27;20180;-71
2020/12/21 07:13:31;;;;;;;37.73;23.53;;;4.60;99.90;;;;;;5140451;27;20182;-71
2020/12/21 07:15:59;;;;;;;47.73;25.23;;;4.60;99.90;;;;;;5152915;27;20170;-71
2020/12/21 07:18:25;;;;;;;40.53;21.50;;;4.50;99.90;;;;;;5136254;27;20210;-71
2020/12/21 07:20:50;;;;;;;40.70;20.87;;;4.50;99.90;;;;;;5133935;27;20605;-70
2020/12/21 07:23:16;;;;;;;39.53;23.20;;;4.50;99.90;;;;;;5132077;27;20198;-70
2020/12/21 07:25:50;;;;;;;38.40;20.93;;;4.50;99.90;;;;;;5130881;27;20258;-71
2020/12/21 07:28:23;;;;;;;40.27;21.30;;;4.50;99.90;;;;;;5144938;27;20178;-71
2020/12/21 07:30:49;;;;;;;37.33;21.80;;;4.50;99.90;;;;;;5151866;27;20166;-71
2020/12/21 07:33:15;;;;;;;42.33;24.53;;;4.50;99.90;;;;;;5131775;27;20201;-71
2020/12/21 07:35:40;;;;;;;42.70;24.10;;;4.50;99.90;;;;;;5132151;27;20177;-70
2020/12/21 07:38:12;;;;;;;39.43;22.73;;;4.50;99.90;;;;;;5132106;27;20175;-70
2020/12/21 07:40:44;;;;;;;38.27;21.07;;;4.50;99.90;;;;;;5131544;27;20167;-70
2020/12/21 07:43:16;;;;;;;35.50;21.67;;;4.60;99.90;;;;;;5133249;27;20191;-70
2020/12/21 07:45:45;;;;;;;39.10;22.07;;;4.60;99.90;;;;;;5135509;27;20231;-70
2020/12/21 07:48:11;;;;;;;39.97;23.63;;;4.60;99.90;;;;;;5112606;27;20663;-69
2020/12/21 07:50:39;;;;;;;33.17;19.93;;;4.70;99.90;;;;;;5112932;27;20520;-71
2020/12/21 07:53:04;;;;;;;40.10;23.00;;;4.70;99.90;;;;;;5131271;27;20621;-71
2020/12/21 07:55:30;;;;;;;40.57;23.27;;;4.80;99.90;;;;;;5132182;27;20266;-71
2020/12/21 07:57:55;;;;;;;34.57;19.80;;;4.80;99.90;;;;;;5130855;27;20175;-74
2020/12/21 08:00:21;;;;;;;35.27;21.47;;;4.90;99.90;;;;;;5128498;27;20190;-70
2020/12/21 08:02:50;;;;;;;31.70;20.40;;;4.90;99.90;;;;;;5129491;28;20219;-70
2020/12/21 08:05:19;;;;;;;33.30;21.20;;;5.00;99.90;;;;;;5130271;28;20171;-70
2020/12/21 08:07:45;;;;;;;27.03;17.67;;;4.90;99.90;;;;;;5145497;27;20447;-70
2020/12/21 08:10:18;;;;;;;29.33;18.53;;;5.00;99.90;;;;;;5139213;27;20175;-70
2020/12/21 08:12:44;;;;;;;25.90;16.37;;;5.00;99.90;;;;;;5125261;28;20559;-69
2020/12/21 08:15:09;;;;;;;27.23;16.13;;;5.10;99.90;;;;;;5129857;28;20175;-68
2020/12/21 08:17:35;;;;;;;25.97;18.30;;;5.20;99.90;;;;;;5139246;27;20637;-71
2020/12/21 08:20:06;;;;;;;28.43;18.40;;;5.20;99.90;;;;;;5139017;27;20227;-70
2020/12/21 08:22:32;;;;;;;32.50;17.80;;;5.20;99.90;;;;;;5132013;27;20210;-72
2020/12/21 08:25:12;;;;;;;31.57;19.93;;;5.30;99.90;;;;;;5134388;27;20178;-73
2020/12/21 08:27:41;;;;;;;26.40;17.53;;;5.30;99.90;;;;;;5127568;27;20554;-73
2020/12/21 08:30:21;;;;;;;26.13;17.47;;;5.30;99.90;;;;;;5133470;27;20639;-73
2020/12/21 08:32:47;;;;;;;30.00;21.40;;;5.40;99.90;;;;;;5135441;27;20182;-73
2020/12/21 08:35:22;;;;;;;31.17;18.33;;;5.40;99.90;;;;;;5135456;27;20463;-75
2020/12/21 08:37:47;;;;;;;26.53;16.23;;;5.40;99.90;;;;;;5132422;27;20550;-75
2020/12/21 08:40:14;;;;;;;31.43;18.53;;;5.50;99.90;;;;;;5134132;27;20167;-60
2020/12/21 08:42:41;;;;;;;30.97;20.17;;;5.40;99.90;;;;;;5133079;27;20685;-60
2020/12/21 08:45:08;;;;;;;26.53;17.73;;;5.40;99.90;;;;;;5128715;27;20208;-65
2020/12/21 08:47:34;;;;;;;26.57;16.23;;;5.50;99.90;;;;;;5133804;27;20195;-58
2020/12/21 08:50:02;;;;;;;25.43;17.27;;;5.40;99.90;;;;;;5132537;27;20163;-59
2020/12/21 08:52:28;;;;;;;25.90;15.53;;;5.40;99.90;;;;;;5134202;27;20203;-69
2020/12/21 08:54:53;;;;;;;28.10;15.37;;;5.50;99.90;;;;;;5131105;27;20194;-68
2020/12/21 08:57:19;;;;;;;26.10;17.23;;;5.40;99.90;;;;;;5133172;27;20179;-68
2020/12/21 08:59:44;;;;;;;20.30;13.67;;;5.50;99.90;;;;;;5133264;27;20198;-69
2020/12/21 09:02:10;;;;;;;29.63;16.20;;;5.50;99.90;;;;;;5132964;27;20616;-69
2020/12/21 09:04:35;;;;;;;25.80;16.47;;;5.50;99.90;;;;;;5132374;27;20171;-69
2020/12/21 09:07:01;;;;;;;26.27;16.20;;;5.60;99.90;;;;;;5134312;27;20281;-70
2020/12/21 09:09:26;;;;;;;24.47;13.10;;;5.60;99.90;;;;;;5133910;27;20191;-68
2020/12/21 09:11:53;;;;;;;27.33;18.43;;;5.60;99.90;;;;;;5133429;27;20179;-69
2020/12/21 09:14:18;;;;;;;28.07;17.03;;;5.70;99.90;;;;;;5130982;27;20179;-69
2020/12/21 09:16:44;;;;;;;22.40;15.67;;;5.80;99.90;;;;;;5123679;27;20244;-71
2020/12/21 09:19:09;;;;;;;24.70;14.73;;;5.80;99.90;;;;;;5128348;27;20526;-69
2020/12/21 09:21:35;;;;;;;23.80;16.03;;;5.90;99.90;;;;;;5131806;27;20274;-70
2020/12/21 09:24:00;;;;;;;26.57;15.70;;;5.90;99.90;;;;;;5122279;27;20194;-70
2020/12/21 09:26:27;;;;;;;28.07;17.50;;;5.90;99.90;;;;;;5120933;27;20674;-69
2020/12/21 09:28:53;;;;;;;26.60;16.17;;;6.00;99.90;;;;;;5124031;27;20235;-69
2020/12/21 09:31:20;;;;;;;26.60;17.47;;;6.00;99.90;;;;;;5130810;27;20178;-70
2020/12/21 09:33:47;;;;;;;27.33;19.40;;;6.00;99.90;;;;;;5123158;27;20203;-71
2020/12/21 09:36:14;;;;;;;28.13;18.07;;;6.00;99.90;;;;;;5126867;27;20175;-70
2020/12/21 09:38:40;;;;;;;30.10;17.23;;;6.00;99.90;;;;;;5129999;27;20171;-69
2020/12/21 09:41:05;;;;;;;26.23;18.27;;;6.00;99.90;;;;;;5131066;27;20686;-70
2020/12/21 09:43:32;;;;;;;29.63;16.00;;;6.00;99.90;;;;;;5133094;27;20192;-71
2020/12/21 09:45:58;;;;;;;24.90;16.00;;;6.10;99.90;;;;;;5133499;27;20293;-70
2020/12/21 09:48:24;;;;;;;23.83;16.00;;;6.10;99.90;;;;;;5125149;27;20288;-73
2020/12/21 09:50:49;;;;;;;22.73;16.40;;;6.20;99.90;;;;;;5130030;27;20227;-72
2020/12/21 09:53:15;;;;;;;23.93;16.23;;;6.20;99.90;;;;;;5131316;27;20696;-72
2020/12/21 09:55:42;;;;;;;26.33;15.37;;;6.30;99.90;;;;;;5132356;27;20179;-69
2020/12/21 09:58:07;;;;;;;21.43;15.07;;;6.30;99.90;;;;;;5129021;27;20268;-60
2020/12/21 10:00:33;;;;;;;22.80;15.47;;;6.30;99.90;;;;;;5121380;27;20191;-59
2020/12/21 10:02:59;;;;;;;21.37;15.03;;;6.30;99.90;;;;;;5131267;22;20232;-60
2020/12/21 10:05:24;;;;;;;23.47;15.07;;;6.30;99.90;;;;;;5063947;28;20193;-65
2020/12/21 10:07:49;;;;;;;21.03;14.07;;;6.30;99.90;;;;;;5069325;28;20201;-67
2020/12/21 10:10:15;;;;;;;20.87;13.83;;;6.40;99.90;;;;;;5069128;28;20648;-66
2020/12/21 10:12:41;;;;;;;20.80;14.63;;;6.40;99.90;;;;;;5074835;28;20423;-66
2020/12/21 10:15:06;;;;;;;19.63;14.53;;;6.50;99.90;;;;;;5092306;28;20252;-66
2020/12/21 10:17:32;;;;;;;24.10;14.63;;;6.50;99.90;;;;;;5094708;28;20213;-66
2020/12/21 10:19:58;;;;;;;19.50;13.87;;;6.50;99.90;;;;;;5092337;28;20179;-67
2020/12/21 10:22:23;;;;;;;21.73;14.80;;;6.60;99.90;;;;;;5091545;28;20326;-66
2020/12/21 10:24:48;;;;;;;17.17;13.63;;;6.60;99.90;;;;;;5092182;28;20301;-66
2020/12/21 10:27:14;;;;;;;18.97;12.70;;;6.70;99.90;;;;;;5092216;28;20176;-66
2020/12/21 10:29:40;;;;;;;20.83;12.93;;;6.70;99.90;;;;;;5092340;28;20538;-66
2020/12/21 10:32:05;;;;;;;16.50;12.27;;;6.80;99.90;;;;;;5091925;28;20160;-66
2020/12/21 10:34:31;;;;;;;16.33;11.90;;;6.80;99.90;;;;;;5091858;28;20207;-66
2020/12/21 10:36:57;;;;;;;17.20;12.83;;;6.90;99.90;;;;;;5073643;28;20663;-66
2020/12/21 10:39:22;;;;;;;19.90;12.70;;;7.00;99.90;;;;;;5091787;28;20570;-67
2020/12/21 10:41:48;;;;;;;19.13;12.03;;;7.00;99.90;;;;;;5091206;28;20614;-66
2020/12/21 10:44:14;;;;;;;16.80;11.87;;;7.10;99.90;;;;;;5091777;28;20192;-66
2020/12/21 10:46:40;;;;;;;19.93;13.43;;;7.00;99.90;;;;;;5091961;28;20165;-66
2020/12/21 10:49:05;;;;;;;18.43;12.40;;;7.20;99.90;;;;;;5091549;28;20257;-66
2020/12/21 10:51:32;;;;;;;17.70;13.40;;;7.20;99.90;;;;;;5092780;28;20192;-66
2020/12/21 10:53:58;;;;;;;17.07;11.87;;;7.30;99.90;;;;;;5091580;28;20570;-66
2020/12/21 10:56:25;;;;;;;16.43;11.80;;;7.30;99.90;;;;;;5091529;28;20176;-66
2020/12/21 10:58:51;;;;;;;17.90;12.33;;;7.40;99.90;;;;;;5091393;28;20180;-66
2020/12/21 11:01:17;;;;;;;17.93;11.10;;;7.40;99.90;;;;;;5090384;28;20541;-66
2020/12/21 11:03:43;;;;;;;15.83;11.73;;;7.40;99.90;;;;;;5091029;28;20235;-66
2020/12/21 11:06:09;;;;;;;13.40;10.10;;;7.40;99.90;;;;;;5091844;28;20175;-66
2020/12/21 11:08:34;;;;;;;14.07;10.87;;;7.40;99.90;;;;;;5092392;28;20203;-67
2020/12/21 11:11:00;;;;;;;11.87;9.87;;;7.40;99.90;;;;;;5090908;28;20655;-67
2020/12/21 11:13:25;;;;;;;15.53;11.83;;;7.30;99.90;;;;;;5090994;28;20195;-65
2020/12/21 11:15:51;;;;;;;15.63;11.50;;;7.40;99.90;;;;;;5091083;28;20176;-65
2020/12/21 11:18:17;;;;;;;17.77;12.53;;;7.50;99.90;;;;;;5090826;28;20179;-65
2020/12/21 11:20:43;;;;;;;17.03;11.37;;;7.50;99.90;;;;;;5089187;28;20169;-66
2020/12/21 11:23:08;;;;;;;19.97;11.10;;;7.40;99.90;;;;;;5072587;28;20215;-66
2020/12/21 11:25:36;;;;;;;17.73;11.60;;;7.30;99.90;;;;;;5090826;28;20169;-65
2020/12/21 11:28:04;;;;;;;15.03;12.33;;;7.30;99.90;;;;;;5090823;28;20269;-66
2020/12/21 11:30:30;;;;;;;17.93;10.87;;;7.30;99.90;;;;;;5090064;28;20165;-66
2020/12/21 11:32:55;;;;;;;20.30;11.33;;;7.30;99.90;;;;;;5090931;28;20257;-66
2020/12/21 11:35:21;;;;;;;17.53;11.37;;;7.20;99.90;;;;;;5090800;28;20200;-66
2020/12/21 11:37:47;;;;;;;16.13;10.90;;;7.20;99.90;;;;;;5090858;28;20639;-66
2020/12/21 11:40:12;;;;;;;18.30;11.67;;;7.30;99.90;;;;;;5091242;28;20164;-66
2020/12/21 11:42:37;;;;;;;18.83;11.80;;;7.40;99.90;;;;;;5090415;28;20267;-66
2020/12/21 11:45:06;;;;;;;15.90;12.07;;;7.40;99.90;;;;;;5092695;28;20277;-67
2020/12/21 11:47:31;;;;;;;16.53;12.40;;;7.30;99.90;;;;;;5091663;28;20198;-66
2020/12/21 11:49:57;;;;;;;17.30;11.63;;;7.30;99.90;;;;;;5090899;28;20629;-66
2020/12/21 11:52:22;;;;;;;14.70;11.37;;;7.20;99.90;;;;;;5090376;28;20164;-66
2020/12/21 11:54:48;;;;;;;15.90;12.17;;;7.30;99.90;;;;;;5090451;28;20620;-66
2020/12/21 11:57:13;;;;;;;16.80;12.87;;;7.20;99.90;;;;;;5090547;28;20168;-66
2020/12/21 11:59:39;;;;;;;20.10;12.80;;;7.30;99.90;;;;;;5090804;28;20590;-66
2020/12/21 12:02:04;;;;;;;24.30;13.00;;;7.20;99.90;;;;;;5089756;28;20251;-66
2020/12/21 12:04:31;;;;;;;21.47;14.57;;;7.20;99.90;;;;;;5090494;28;20200;-65
2020/12/21 12:07:01;;;;;;;20.40;13.90;;;7.30;99.90;;;;;;5090215;28;20199;-66
2020/12/21 12:09:27;;;;;;;17.40;12.27;;;7.30;99.90;;;;;;5090051;28;20675;-66
2020/12/21 12:11:53;;;;;;;18.63;11.60;;;7.30;99.90;;;;;;5089579;28;20198;-66
2020/12/21 12:14:19;;;;;;;20.67;12.47;;;7.20;99.90;;;;;;5090058;28;20223;-66
2020/12/21 12:16:44;;;;;;;15.20;11.07;;;7.20;99.90;;;;;;5089974;28;20168;-66
2020/12/21 12:19:10;;;;;;;16.83;11.63;;;7.20;99.90;;;;;;5090326;28;20614;-66
2020/12/21 12:21:35;;;;;;;19.60;12.50;;;7.20;99.90;;;;;;5089246;28;20232;-66
2020/12/21 12:24:01;;;;;;;21.70;11.80;;;7.10;99.90;;;;;;5090248;28;20253;-66
2020/12/21 12:26:26;;;;;;;20.57;11.93;;;7.20;99.90;;;;;;5090088;28;20655;-66
2020/12/21 12:28:56;;;;;;;18.00;10.97;;;7.20;99.90;;;;;;5091468;28;20618;-66
2020/12/21 12:31:22;;;;;;;16.10;11.40;;;7.20;99.90;;;;;;5091550;28;20223;-66
2020/12/21 12:33:49;;;;;;;14.60;11.40;;;7.20;99.90;;;;;;5090335;28;20249;-66
2020/12/21 12:36:24;;;;;;;18.27;11.63;;;7.20;99.90;;;;;;5090220;28;20168;-65
2020/12/21 12:38:49;;;;;;;15.27;11.23;;;7.20;99.90;;;;;;5090479;28;20180;-66